Nappanee, Indiana
Current Conditions -  °F | °C
As of 10:53 AM on Saturday 20 Dec 2014 (Local Time) from KGSH Reporting Station
Haze Haze  
Wind Chill: 29°   Ceiling: 3200
Heat Index: 29°   Visibility: 3mi
Dew Point: 26°   Wind: 0mph
Humidity: 89%   Direction: NA
Pressure: 30.28"   Gusts: NA
Location:  41.44°N, 86°W
Report Text: KGSH 201553Z AUTO 00000KT 3SM BR OVC032 M02/M03 A3028 RMK AO2 SLP266 T10171033
Loading
Personal Weather Stations






























Interactive Weather Map New forecast layout! Learn more

10-Day Weather Forecast

Advertisements
Track Severe Weather on mobile